首页
METAR-TAF:

METAR-TAF

机场 :

Greater Rochester International Airport

羅徹斯特, 紐約州, 美国

纬度: 43-07-00N, 经度: 077-40-36W, 海拔: 170米

当前天气观测

该预报发布于34分钟前的12:54 UTC
风速10节,风向西
温度 1°C
湿度 75%
气压 1021 hPa
能見度: 14.5公里
阴天层高于2100英尺

METAR: KROC 151254Z 27010KT 9SM OVC021 01/M03 A3015 RMK AO2 SLP221 T00061033

时间: 08:28 (13:28 UTC)

预报

该预报发布于1小时和57分钟前的11:31 UTC
预报有效从15日的 12点(UTC)到 16日的 12点(UTC)
风速8节,风向西南
能見度: 10公里
多云层高于2500英尺
从 15日的 1600点(UTC)
风速13节,风向西,有时为27节阵风
能見度: 10公里
多云层高于3000英尺
从 15日的 2000点(UTC)
风速13节,风向西,有时为25节阵风
能見度: 10公里
散云层高于8000英尺
从 15日的 2300点(UTC)
风速10节,风向西
能見度: 10公里
多云层高于2500英尺
从 16日的 0400点(UTC)
风速11节,风向
能見度: 10公里
散云层高于7000英尺

TAF: KROC 151131Z 1512/1612 23008KT P6SM BKN025 FM151600 26013G27KT P6SM BKN030 FM152000 26013G25KT P6SM SCT080 FM152300 27010KT P6SM BKN025 FM160400 35011KT P6SM SCT070

超过4000个机场的气象观测和天气预报(METAR&TAF报告)。

可查询的气象台以黄色和红色小点在地图上表示。

将鼠标移到小点上方,可查看气象台名称。

然后点击查看天气观测和预报。

如需切换地图:点击带黑十字的绿色按钮放大地图;点击带横线的绿色按钮缩小地图;或者点击绿色箭头查看邻近地区的地图。


METAR-TAF: